Reno, NV

10:23 PM PDT on August 21, 2014 (GMT -0700)
Old South West | Change Station
CLOSE
Current Station
Personal Weather Station
Location: Reno, NV
Elevation: 4581 ft
Nearby Weather Stations
Active Advisory: Fire Weather Warning

Elev 4581 ft 39.51 °N, 119.83 °W | Updated 4 seconds ago

Clear
Clear
69.8 °F
Feels Like 69.8 °F
N
3.9
Wind Variable Wind from SSW
Gusts 14.5 mph

Today
High -- | Low -- °F
--% Chance of Precip.
Yesterday
High -- | Low -- °F
Precip. -- in
6:17 AM 7:46 PM
Waning Crescent, 10% visible
Pressure 29.89 in
Visibility 10.0 miles
Clouds Clear
Dew Point 42 °F
Humidity 37%
Rainfall 0.00 in
Snow Depth Not available.
UV 0 out of 12
Pollen 7.30 out of 12
Air Quality Not available.
Flu Activity Not available.
METAR KRNO 220455Z 31013G18KT 10SM CLR 23/04 A3005 RMK AO2 PK WND 29028/0357 SLP121 T02280044

More Conditions Fewer Conditions

Pressure 29.89 in
Visibility 10.0 miles
Clouds Clear
Dew Point 42 °F
Humidity 37%
Rainfall 0.00 in
Snow Depth Not available.
UV 0 out of 12
Pollen 7.30 out of 12
Air Quality Not available.
Flu Activity Not available.
METAR KRNO 220455Z 31013G18KT 10SM CLR 23/04 A3005 RMK AO2 PK WND 29028/0357 SLP121 T02280044

More Conditions Fewer Conditions

10-Day Weather Forecast

Almanac

Astronomy

Aug. 21, 2014 Rise Set
Actual Time 6:17 AM PDT 7:46 PM PDT
Civil Twilight 5:49 AM PDT 8:14 PM PDT
Nautical Twilight 5:15 AM PDT 8:48 PM PDT
Astronomical Twilight 4:38 AM PDT 9:24 PM PDT
Moon 2:52 AM PDT (8/21) 5:18 PM PDT (8/21)
Length of Visible Light 14h 25m
Length of Day
13h 29m
Tomorrow will be 2m 23s shorter.
Waning Crescent, 10% of the Moon is Illuminated
Aug 22
Waning Crescent
Aug 25
New
Sep 2
First Quarter
Sep 8
Full
Sep 15
Last Quarter

Yesterday's Extremes

State Highs State Lows

Community

WunderPhotos

Upload Photos

1,746,131 photos uploaded!

Nearby

Snow Depth

Station Depth Elevation
Big Creek Summit 1 in 8700 ft
Sheldon 0 in 5860 ft
Lamance Creek 1 in 6000 ft
Granite Peak 1 in 7800 ft
Buckskin Lower 3 in 6700 ft

Earthquake Activity

City Distance Mag. Time & Date
No recent earthquake activity has been reported nearby.
Minimum magnitude displayed is 2.5.

Coastal Water Temperatures

Place Temperature
No Stations Reporting

Nearby Weather Stations